createdAt,value
2023-02-11T00:02:47.808Z,0.03
2023-02-11T00:07:53.575Z,0.02
2023-02-11T00:12:58.536Z,0.03
2023-02-11T00:18:02.646Z,0.02
2023-02-11T00:23:08.454Z,0.07
2023-02-11T00:28:13.733Z,0.05
2023-02-11T00:33:18.293Z,0.03
2023-02-11T00:38:24.061Z,0.00
2023-02-11T00:43:28.680Z,0.02
2023-02-11T00:48:33.379Z,-0.03
2023-02-11T00:53:39.686Z,-0.03
2023-02-11T00:58:44.776Z,-0.13
2023-02-11T01:03:49.475Z,-0.10
2023-02-11T01:08:55.031Z,-0.13
2023-02-11T01:13:59.440Z,-0.17
2023-02-11T01:19:05.483Z,-0.16
2023-02-11T01:24:11.162Z,-0.12
2023-02-11T01:29:15.553Z,-0.23
2023-02-11T01:34:19.927Z,-0.18
2023-02-11T01:39:25.481Z,-0.22
2023-02-11T01:44:33.079Z,-0.22
2023-02-11T01:49:40.688Z,-0.18
2023-02-11T01:55:09.324Z,-0.16
2023-02-11T02:00:20.390Z,-0.11
2023-02-11T02:05:33.565Z,-0.08
2023-02-11T02:10:44.149Z,-0.10
2023-02-11T02:15:53.034Z,-0.09
2023-02-11T02:21:36.002Z,-0.10
2023-02-11T02:32:44.429Z,-0.08
2023-02-11T02:37:56.538Z,-0.13
2023-02-11T02:43:03.071Z,-0.16
2023-02-11T02:48:08.778Z,-0.15
2023-02-11T02:53:28.152Z,-0.18
2023-02-11T02:58:55.583Z,-0.26
2023-02-11T03:04:11.115Z,-0.29
2023-02-11T03:09:23.298Z,-0.25
2023-02-11T03:14:30.508Z,-0.39
2023-02-11T03:19:39.450Z,-0.39
2023-02-11T03:24:44.526Z,-0.45
2023-02-11T03:29:56.978Z,-0.48
2023-02-11T03:35:09.294Z,-0.47
2023-02-11T03:40:20.198Z,-0.46
2023-02-11T03:45:26.822Z,-0.47
2023-02-11T03:50:36.187Z,-0.57
2023-02-11T03:55:43.520Z,-0.59
2023-02-11T04:00:47.967Z,-0.60
2023-02-11T04:05:54.374Z,-0.64
2023-02-11T04:10:58.751Z,-0.59
2023-02-11T04:16:03.055Z,-0.55
2023-02-11T04:21:10.865Z,-0.57
2023-02-11T04:26:15.232Z,-0.48
2023-02-11T04:31:19.662Z,-0.45
2023-02-11T04:36:25.513Z,-0.45
2023-02-11T04:41:30.346Z,-0.41
2023-02-11T04:46:35.186Z,-0.40
2023-02-11T04:51:41.408Z,-0.35
2023-02-11T04:56:46.144Z,-0.39
2023-02-11T05:01:50.695Z,-0.43
2023-02-11T05:06:58.610Z,-0.42
2023-02-11T05:12:03.119Z,-0.49
2023-02-11T05:17:07.635Z,-0.48
2023-02-11T05:22:13.251Z,-0.54
2023-02-11T05:27:17.493Z,-0.59
2023-02-11T05:32:21.708Z,-0.67
2023-02-11T05:37:27.365Z,-0.77
2023-02-11T05:42:32.431Z,-0.77
2023-02-11T05:47:36.570Z,-0.82
2023-02-11T05:52:42.452Z,-0.83
2023-02-11T05:57:46.750Z,-0.83
2023-02-11T06:02:50.997Z,-0.87
2023-02-11T06:07:56.779Z,-0.97
2023-02-11T06:13:00.813Z,-1.00
2023-02-11T06:18:05.850Z,-1.03
2023-02-11T06:23:11.732Z,-0.96
2023-02-11T06:28:15.897Z,-0.96
2023-02-11T06:33:20.266Z,-0.98
2023-02-11T06:38:26.000Z,-0.86
2023-02-11T06:43:30.172Z,-0.94
2023-02-11T06:48:34.799Z,-0.83
2023-02-11T06:53:43.688Z,-0.89
2023-02-11T06:58:49.034Z,-0.82
2023-02-11T07:03:53.663Z,-0.69
2023-02-11T07:08:59.368Z,-0.56
2023-02-11T07:14:08.351Z,-0.46
2023-02-11T07:19:12.763Z,-0.33
2023-02-11T07:24:18.418Z,-0.18
2023-02-11T07:29:22.822Z,0.06
2023-02-11T07:34:27.226Z,0.19
2023-02-11T07:39:33.678Z,0.39
2023-02-11T07:44:38.610Z,0.37
2023-02-11T07:49:42.942Z,0.39
2023-02-11T07:54:50.073Z,0.52
2023-02-11T07:59:54.960Z,0.54
2023-02-11T08:04:59.315Z,0.74
2023-02-11T08:10:05.835Z,0.88
2023-02-11T08:15:11.014Z,1.06
2023-02-11T08:20:15.623Z,1.09
2023-02-11T08:25:20.941Z,1.31
2023-02-11T08:30:27.422Z,1.42
2023-02-11T08:35:33.134Z,1.70
2023-02-11T08:40:38.680Z,1.84
2023-02-11T08:45:42.892Z,1.77
2023-02-11T08:50:47.228Z,1.73
2023-02-11T08:55:55.573Z,1.96
2023-02-11T09:01:00.479Z,2.19
2023-02-11T09:06:07.702Z,2.42
2023-02-11T09:11:14.510Z,2.39
2023-02-11T09:16:21.440Z,2.64
2023-02-11T09:21:26.083Z,2.73
2023-02-11T09:26:34.120Z,2.64
2023-02-11T09:31:38.672Z,2.61
2023-02-11T09:36:43.837Z,2.67
2023-02-11T09:42:32.535Z,2.68
2023-02-11T09:47:46.822Z,2.59
2023-02-11T09:52:58.447Z,2.58
2023-02-11T09:58:08.624Z,2.56
2023-02-11T10:03:44.839Z,2.75
2023-02-11T10:09:02.315Z,3.16
2023-02-11T10:14:26.856Z,3.45
2023-02-11T10:19:52.588Z,3.25
2023-02-11T10:25:00.305Z,3.25
2023-02-11T10:30:13.793Z,3.09
2023-02-11T10:35:22.167Z,3.14
2023-02-11T10:40:29.523Z,3.15
2023-02-11T10:45:39.976Z,3.01
2023-02-11T10:50:44.237Z,3.04
2023-02-11T10:55:54.016Z,3.04
2023-02-11T11:01:01.485Z,3.04
2023-02-11T11:06:09.370Z,3.02
2023-02-11T11:11:17.273Z,2.91
2023-02-11T11:16:27.276Z,2.73
2023-02-11T11:21:36.483Z,2.61
2023-02-11T11:26:44.523Z,2.62
2023-02-11T11:31:55.219Z,2.45
2023-02-11T11:37:01.166Z,2.53
2023-02-11T11:42:23.168Z,2.41
2023-02-11T11:47:37.193Z,2.43
2023-02-11T11:52:47.871Z,2.46
2023-02-11T11:57:52.495Z,2.39
2023-02-11T12:03:39.008Z,2.40
2023-02-11T12:08:58.302Z,2.30
2023-02-11T12:14:15.586Z,2.38
2023-02-11T12:20:00.377Z,2.32
2023-02-11T12:25:27.068Z,2.30
2023-02-11T12:30:58.217Z,2.21
2023-02-11T12:36:13.944Z,2.18
2023-02-11T12:41:51.267Z,2.24
2023-02-11T12:47:04.036Z,2.17
2023-02-11T12:52:38.944Z,2.24
2023-02-11T12:57:44.609Z,2.25
2023-02-11T13:02:56.022Z,2.42
2023-02-11T13:08:08.462Z,2.37
2023-02-11T13:13:20.710Z,2.38
2023-02-11T13:18:49.619Z,2.35
2023-02-11T13:24:05.480Z,2.36
2023-02-11T13:29:30.202Z,2.37
2023-02-11T13:34:58.164Z,2.39
2023-02-11T13:40:21.491Z,2.38
2023-02-11T13:45:33.239Z,2.39
2023-02-11T13:50:47.918Z,2.45
2023-02-11T13:56:06.180Z,2.51
2023-02-11T14:01:11.194Z,2.50
2023-02-11T14:06:36.129Z,2.50
2023-02-11T14:11:55.432Z,2.50
2023-02-11T14:17:38.127Z,2.51
2023-02-11T14:22:49.620Z,2.51
2023-02-11T14:28:00.052Z,2.57
2023-02-11T14:33:41.286Z,2.63
2023-02-11T14:39:01.577Z,2.67
2023-02-11T14:44:14.678Z,2.79
2023-02-11T14:49:27.520Z,2.81
2023-02-11T14:54:33.568Z,2.85
2023-02-11T14:59:39.628Z,2.87
2023-02-11T15:04:44.225Z,2.89
2023-02-11T15:09:52.418Z,2.91
2023-02-11T15:15:01.436Z,2.92
2023-02-11T15:20:07.278Z,2.93
2023-02-11T15:25:16.742Z,2.93
2023-02-11T15:30:34.022Z,2.92
2023-02-11T15:35:41.141Z,2.93
2023-02-11T15:40:56.526Z,2.92
2023-02-11T15:46:04.021Z,2.96
2023-02-11T15:51:20.895Z,2.93
2023-02-11T15:56:30.693Z,2.93
2023-02-11T16:01:40.079Z,2.95
2023-02-11T16:06:47.738Z,2.92
2023-02-11T16:11:59.168Z,2.96
2023-02-11T16:17:08.571Z,2.92
2023-02-11T16:22:18.512Z,2.94
2023-02-11T16:27:28.518Z,2.96
2023-02-11T16:32:34.044Z,3.01
2023-02-11T16:37:39.314Z,3.03
2023-02-11T16:42:43.566Z,3.03
2023-02-11T16:47:49.503Z,3.06
2023-02-11T16:52:55.148Z,3.07
2023-02-11T16:57:59.733Z,3.11
2023-02-11T17:03:07.850Z,3.15
2023-02-11T17:08:13.226Z,3.14
2023-02-11T17:13:17.406Z,3.20
2023-02-11T17:18:23.067Z,3.25
2023-02-11T17:23:27.712Z,3.26
2023-02-11T17:28:32.470Z,3.29
2023-02-11T17:33:38.883Z,3.30
2023-02-11T17:38:43.533Z,3.34
2023-02-11T17:43:47.973Z,3.34
2023-02-11T17:48:54.060Z,3.39
2023-02-11T17:54:00.278Z,3.41
2023-02-11T17:59:05.944Z,3.40
2023-02-11T18:04:17.380Z,3.42
2023-02-11T18:09:22.345Z,3.42
2023-02-11T18:14:26.808Z,3.38
2023-02-11T18:19:35.198Z,3.46
2023-02-11T18:24:39.692Z,3.50
2023-02-11T18:29:44.110Z,3.48
2023-02-11T18:34:49.674Z,3.52
2023-02-11T18:39:54.007Z,3.57
2023-02-11T18:44:58.508Z,3.60
2023-02-11T18:50:05.067Z,3.63
2023-02-11T18:55:10.519Z,3.64
2023-02-11T19:00:16.799Z,3.71
2023-02-11T19:05:22.641Z,3.77
2023-02-11T19:10:28.522Z,3.77
2023-02-11T19:15:32.848Z,3.79
2023-02-11T19:20:40.860Z,3.86
2023-02-11T19:25:49.251Z,3.87
2023-02-11T19:30:53.724Z,3.94
2023-02-11T19:36:06.778Z,3.96
2023-02-11T19:41:11.660Z,3.93
2023-02-11T19:46:16.167Z,3.95
2023-02-11T19:51:22.808Z,3.96
2023-02-11T19:56:28.774Z,3.98
2023-02-11T20:01:33.098Z,3.99
2023-02-11T20:06:39.001Z,3.96
2023-02-11T20:11:44.086Z,4.01
2023-02-11T20:16:50.015Z,4.03
2023-02-11T20:21:56.542Z,4.07
2023-02-11T20:27:01.085Z,4.06
2023-02-11T20:32:06.812Z,4.11
2023-02-11T20:37:12.754Z,4.06
2023-02-11T20:42:17.374Z,4.05
2023-02-11T20:47:22.725Z,4.11
2023-02-11T20:52:28.751Z,4.13
2023-02-11T20:57:35.126Z,4.08
2023-02-11T21:02:40.167Z,4.16
2023-02-11T21:07:46.160Z,4.14
2023-02-11T21:12:50.595Z,4.15
2023-02-11T21:17:55.374Z,4.19
2023-02-11T21:23:00.901Z,4.18
2023-02-11T21:28:05.552Z,4.15
2023-02-11T21:33:09.781Z,4.13
2023-02-11T21:38:15.759Z,4.13
2023-02-11T21:43:20.979Z,4.14
2023-02-11T21:48:26.834Z,4.10
2023-02-11T21:53:32.602Z,4.13
2023-02-11T21:58:37.204Z,4.15
2023-02-11T22:03:41.612Z,4.18
2023-02-11T22:08:47.123Z,4.10
2023-02-11T22:13:56.312Z,4.14
2023-02-11T22:19:02.376Z,4.10
2023-02-11T22:24:08.645Z,4.10
2023-02-11T22:29:13.293Z,4.01
2023-02-11T22:34:17.570Z,4.03
2023-02-11T22:39:23.584Z,3.99
2023-02-11T22:44:28.218Z,4.02
2023-02-11T22:49:33.282Z,4.04
2023-02-11T22:54:39.267Z,4.03
2023-02-11T22:59:43.401Z,4.02
2023-02-11T23:04:49.896Z,4.03
2023-02-11T23:09:56.046Z,3.99
2023-02-11T23:15:02.103Z,4.06
2023-02-11T23:20:09.313Z,4.09
2023-02-11T23:25:15.186Z,4.11
2023-02-11T23:30:20.759Z,4.11
2023-02-11T23:35:25.191Z,4.09
2023-02-11T23:40:30.808Z,4.01
2023-02-11T23:45:35.321Z,4.05
2023-02-11T23:50:43.909Z,4.04
2023-02-11T23:55:49.898Z,3.99
